MMAA/ACA METAR and TAF weather

Enter ICAO airport designator
Station Type Date Time Source
MMAA METAR 2020/11/25 22:45 UTC NOAA

MMAA 252245Z 25004KT 6SM FEW015 29/24 A2981 RMK 8/100 HZY CI


Station Type Date Time Source
MMAA Decoded METAR 2020/11/25 22:45 UTC NOAA

Acapulco / G. Alvarez, Mexico (MMAA) 16-46N 099-45W
Nov 25, 2020 - 05:45 PM EST / 2020.11.25 2245 UTC
Wind: from the WSW (250 degrees) at 5 MPH (4 KT):0
Visibility: 6 mile(s):0
Sky conditions: mostly clear
Temperature: 84 F (29 C)
Dew Point: 75 F (24 C)
Relative Humidity: 74%
Pressure (altimeter): 29.81 in. Hg (1009 hPa)
ob: MMAA 252245Z 25004KT 6SM FEW015 29/24 A2981 RMK 8/100 HZY CI
cycle: 23

Station Type Date Time Source
MMAA TAF 2020/11/25 18:25 UTC NOAA

TAF MMAA 251618Z 2518/2624 26010KT 6SM HZ SCT015 TX30/2518Z TN24/2612Z
FM260300 31005KT P6SM BKN015
FM261600 25010KT P6SM SCT015

Example: see airport list